地図

経路データ

SID SEASON NUMBER BASIN SUBBASIN NAME ISO_TIME NATURE LAT LON WMO_WIND WMO_PRES WMO_AGENCY TRACK_TYPE DIST2LAND LANDFALL IFLAG USA_AGENCY USA_ATCF_ID USA_LAT USA_LON USA_RECORD USA_STATUS USA_WIND USA_PRES USA_SSHS USA_R34_NE USA_R34_SE USA_R34_SW USA_R34_NW USA_R50_NE USA_R50_SE USA_R50_SW USA_R50_NW USA_R64_NE USA_R64_SE USA_R64_SW USA_R64_NW USA_POCI USA_ROCI USA_RMW USA_EYE TOKYO_LAT TOKYO_LON TOKYO_GRADE TOKYO_WIND TOKYO_PRES TOKYO_R50_DIR TOKYO_R50_LONG TOKYO_R50_SHORT TOKYO_R30_DIR TOKYO_R30_LONG TOKYO_R30_SHORT TOKYO_LAND CMA_LAT CMA_LON CMA_CAT CMA_WIND CMA_PRES HKO_LAT HKO_LON HKO_CAT HKO_WIND HKO_PRES NEWDELHI_LAT NEWDELHI_LON NEWDELHI_GRADE NEWDELHI_WIND NEWDELHI_PRES NEWDELHI_CI NEWDELHI_DP NEWDELHI_POCI REUNION_LAT REUNION_LON REUNION_TYPE REUNION_WIND REUNION_PRES REUNION_TNUM REUNION_CI REUNION_RMW REUNION_R34_NE REUNION_R34_SE REUNION_R34_SW REUNION_R34_NW REUNION_R50_NE REUNION_R50_SE REUNION_R50_SW REUNION_R50_NW REUNION_R64_NE REUNION_R64_SE REUNION_R64_SW REUNION_R64_NW BOM_LAT BOM_LON BOM_TYPE BOM_WIND BOM_PRES BOM_TNUM BOM_CI BOM_RMW BOM_R34_NE BOM_R34_SE BOM_R34_SW BOM_R34_NW BOM_R50_NE BOM_R50_SE BOM_R50_SW BOM_R50_NW BOM_R64_NE BOM_R64_SE BOM_R64_SW BOM_R64_NW BOM_ROCI BOM_POCI BOM_EYE BOM_POS_METHOD BOM_PRES_METHOD NADI_LAT NADI_LON NADI_CAT NADI_WIND NADI_PRES WELLINGTON_LAT WELLINGTON_LON WELLINGTON_WIND WELLINGTON_PRES DS824_LAT DS824_LON DS824_STAGE DS824_WIND DS824_PRES TD9636_LAT TD9636_LON TD9636_STAGE TD9636_WIND TD9636_PRES TD9635_LAT TD9635_LON TD9635_WIND TD9635_PRES TD9635_ROCI NEUMANN_LAT NEUMANN_LON NEUMANN_CLASS NEUMANN_WIND NEUMANN_PRES MLC_LAT MLC_LON MLC_CLASS MLC_WIND MLC_PRES USA_GUST BOM_GUST BOM_GUST_PER REUNION_GUST REUNION_GUST_PER USA_SEAHGT USA_SEARAD_NE USA_SEARAD_SE USA_SEARAD_SW USA_SEARAD_NW STORM_SPEED STORM_DIR
1948160N23121 1948 36 WP MM NOT_NAMED 1948-06-07 12:00:00 NR 23.0000 120.500 main 0 0 __________O___ -1 23.0000 120.500 2 11 253
1948160N23121 1948 36 WP MM NOT_NAMED 1948-06-07 15:00:00 NR 22.8319 119.907 main 30 30 __________P___ -1 22.8319 119.907 2 11 252
1948160N23121 1948 36 WP MM NOT_NAMED 1948-06-07 18:00:00 NR 22.6600 119.341 main 92 92 __________P___ -1 22.6600 119.341 2 11 251
1948160N23121 1948 36 WP MM NOT_NAMED 1948-06-07 21:00:00 NR 22.4830 118.830 main 147 147 __________P___ -1 22.4830 118.830 2 9 248
1948160N23121 1948 36 WP MM NOT_NAMED 1948-06-08 00:00:00 NR 22.3000 118.400 main 176 172 __________O___ -1 22.3000 118.400 2 8 242
1948160N23121 1948 36 WP MM NOT_NAMED 1948-06-08 03:00:00 NR 22.1119 118.067 main 186 167 __________P___ -1 22.1119 118.067 2 7 236
1948160N23121 1948 36 WP MM NOT_NAMED 1948-06-08 06:00:00 NR 21.9264 117.811 main 174 166 __________P___ -1 21.9264 117.811 2 6 230
1948160N23121 1948 36 WP MM NOT_NAMED 1948-06-08 09:00:00 NR 21.7528 117.599 main 167 167 __________P___ -1 21.7528 117.599 2 5 229
1948160N23121 1948 36 WP MM NOT_NAMED 1948-06-08 12:00:00 NR 21.6000 117.400 main 172 167 __________O___ -1 21.6000 117.400 2 5 232
1948160N23121 1948 36 WP MM NOT_NAMED 1948-06-08 15:00:00 NR 21.4577 117.192 main 172 172 __________P___ -1 21.4577 117.192 2 5 236
1948160N23121 1948 36 WP MM NOT_NAMED 1948-06-08 18:00:00 NR 21.3394 116.988 main 186 181 __________P___ -1 21.3394 116.988 2 4 243
1948160N23121 1948 36 WP MM NOT_NAMED 1948-06-08 21:00:00 NR 21.2514 116.764 main 181 181 __________P___ -1 21.2514 116.764 2 5 253
1948160N23121 1948 36 WP MM NOT_NAMED 1948-06-09 00:00:00 NR 21.2000 116.500 main 182 172 __________O___ -1 21.2000 116.500 2 6 262
1948160N23121 1948 36 WP MM NOT_NAMED 1948-06-09 03:00:00 NR 21.1732 116.152 main 172 167 __________P___ -1 21.1732 116.152 2 7 269
1948160N23121 1948 36 WP MM NOT_NAMED 1948-06-09 06:00:00 NR 21.1831 115.765 main 167 154 __________P___ -1 21.1831 115.765 2 7 274
1948160N23121 1948 36 WP MM NOT_NAMED 1948-06-09 09:00:00 NR 21.2263 115.371 main 154 133 __________P___ -1 21.2263 115.371 2 7 279
1948160N23121 1948 36 WP MM NOT_NAMED 1948-06-09 12:00:00 NR 21.3000 115.000 main 133 108 __________O___ -1 21.3000 115.000 2 7 285
1948160N23121 1948 36 WP MM NOT_NAMED 1948-06-09 15:00:00 NR 21.4007 114.677 main 108 90 __________P___ -1 21.4007 114.677 2 6 292
1948160N23121 1948 36 WP MM NOT_NAMED 1948-06-09 18:00:00 NR 21.5223 114.395 main 90 78 __________P___ -1 21.5223 114.395 2 6 297
1948160N23121 1948 36 WP MM NOT_NAMED 1948-06-09 21:00:00 NR 21.6577 114.141 main 70 60 __________P___ -1 21.6577 114.141 2 5 301
1948160N23121 1948 36 WP MM NOT_NAMED 1948-06-10 00:00:00 NR 21.8000 113.900 main 60 __________O___ -1 21.8000 113.900 1 30 5 302

デジタル台風データ・検索

IBTrACS Databaseについて

本データベースは、米国NOAAが公開する1842年以降の世界の熱帯低気圧のベストトラックデータアーカイブInternational Best Track Archive for Climate Stewardship (IBTrACS)を、ウェブで閲覧しやすい形式に変換したものです。

最終更新日:2021-12-01